createdAt,value
2019-04-11T00:00:57.820Z,3.12
2019-04-11T00:01:58.459Z,3.12
2019-04-11T00:02:57.788Z,3.09
2019-04-11T00:03:57.778Z,3.02
2019-04-11T00:04:58.776Z,2.97
2019-04-11T00:05:57.771Z,3.09
2019-04-11T00:06:58.127Z,3.03
2019-04-11T00:07:59.689Z,3.03
2019-04-11T00:08:58.594Z,3.05
2019-04-11T00:09:58.761Z,2.95
2019-04-11T00:10:57.721Z,2.92
2019-04-11T00:11:57.912Z,2.87
2019-04-11T00:12:57.683Z,2.87
2019-04-11T00:13:57.846Z,2.77
2019-04-11T00:14:57.660Z,2.77
2019-04-11T00:15:57.658Z,2.69
2019-04-11T00:16:57.644Z,2.73
2019-04-11T00:17:58.600Z,2.73
2019-04-11T00:18:58.657Z,2.64
2019-04-11T00:19:57.929Z,2.67
2019-04-11T00:20:58.272Z,2.61
2019-04-11T00:21:57.586Z,2.63
2019-04-11T00:22:57.713Z,2.55
2019-04-11T00:23:58.563Z,2.52
2019-04-11T00:24:57.557Z,2.55
2019-04-11T00:25:58.052Z,2.45
2019-04-11T00:26:57.532Z,2.49
2019-04-11T00:27:57.521Z,2.48
2019-04-11T00:28:58.348Z,2.48
2019-04-11T00:29:57.606Z,2.49
2019-04-11T00:30:58.701Z,2.49
2019-04-11T00:31:57.480Z,2.37
2019-04-11T00:32:58.038Z,2.40
2019-04-11T00:33:58.414Z,2.41
2019-04-11T00:34:57.472Z,2.37
2019-04-11T00:35:57.807Z,2.41
2019-04-11T00:36:57.426Z,2.38
2019-04-11T00:37:57.415Z,2.48
2019-04-11T00:38:57.406Z,2.46
2019-04-11T00:39:57.396Z,2.45
2019-04-11T00:40:57.613Z,2.48
2019-04-11T00:41:58.531Z,2.48
2019-04-11T00:42:57.369Z,2.45
2019-04-11T00:43:57.352Z,2.40
2019-04-11T00:44:57.347Z,2.45
2019-04-11T00:45:58.174Z,2.27
2019-04-11T00:46:58.456Z,2.27
2019-04-11T00:47:57.558Z,2.31
2019-04-11T00:48:57.721Z,2.28
2019-04-11T00:49:57.291Z,2.34
2019-04-11T00:50:57.288Z,2.33
2019-04-11T00:51:58.303Z,2.35
2019-04-11T00:52:58.005Z,2.37
2019-04-11T00:53:58.294Z,2.35
2019-04-11T00:54:57.422Z,2.30
2019-04-11T00:55:57.246Z,2.34
2019-04-11T00:56:57.214Z,2.30
2019-04-11T00:57:57.203Z,2.33
2019-04-11T00:58:58.318Z,2.35
2019-04-11T00:59:57.431Z,2.22
2019-04-11T01:00:57.570Z,2.31
2019-04-11T01:01:57.171Z,2.34
2019-04-11T01:02:57.955Z,2.26
2019-04-11T01:03:57.140Z,2.17
2019-04-11T01:04:57.161Z,2.15
2019-04-11T01:05:58.198Z,2.17
2019-04-11T01:06:57.120Z,2.16
2019-04-11T01:07:57.746Z,2.15
2019-04-11T01:08:57.088Z,2.12
2019-04-11T01:09:57.078Z,2.15
2019-04-11T01:10:57.388Z,2.16
2019-04-11T01:11:57.066Z,2.06
2019-04-11T01:12:57.054Z,2.09
2019-04-11T01:13:57.359Z,2.06
2019-04-11T01:14:57.356Z,2.17
2019-04-11T01:15:57.014Z,2.10
2019-04-11T01:16:57.052Z,2.13
2019-04-11T01:17:57.988Z,2.12
2019-04-11T01:18:56.982Z,2.15
2019-04-11T01:19:57.353Z,2.19
2019-04-11T01:20:56.962Z,2.13
2019-04-11T01:21:58.011Z,2.16
2019-04-11T01:22:56.946Z,2.19
2019-04-11T01:23:57.525Z,2.26
2019-04-11T01:24:57.828Z,2.23
2019-04-11T01:25:57.070Z,2.17
2019-04-11T01:26:57.393Z,2.28
2019-04-11T01:27:56.887Z,2.26
2019-04-11T01:28:56.877Z,2.33
2019-04-11T01:29:57.797Z,2.33
2019-04-11T01:30:57.602Z,2.30
2019-04-11T01:31:57.980Z,2.26
2019-04-11T01:32:56.985Z,2.26
2019-04-11T01:33:57.076Z,2.16
2019-04-11T01:34:57.145Z,2.22
2019-04-11T01:35:57.467Z,2.22
2019-04-11T01:36:57.528Z,2.30
2019-04-11T01:37:57.754Z,2.19
2019-04-11T01:38:56.995Z,2.28
2019-04-11T01:39:57.207Z,2.22
2019-04-11T01:40:56.755Z,2.22
2019-04-11T01:41:56.752Z,2.17
2019-04-11T01:42:57.652Z,2.26
2019-04-11T01:44:02.213Z,2.22
2019-04-11T01:44:57.911Z,2.30
2019-04-11T01:45:57.925Z,2.22
2019-04-11T01:46:56.699Z,2.28
2019-04-11T01:47:57.399Z,2.27
2019-04-11T01:48:57.671Z,2.30
2019-04-11T01:49:56.697Z,2.26
2019-04-11T01:50:57.056Z,2.27
2019-04-11T01:51:56.648Z,2.13
2019-04-11T01:52:56.628Z,2.13
2019-04-11T01:53:57.430Z,2.28
2019-04-11T01:54:56.607Z,2.30
2019-04-11T01:55:56.866Z,2.16
2019-04-11T01:56:57.865Z,2.23
2019-04-11T01:57:56.573Z,2.22
2019-04-11T01:58:57.290Z,2.16
2019-04-11T01:59:56.590Z,2.15
2019-04-11T02:00:56.829Z,2.13
2019-04-11T02:01:56.937Z,2.22
2019-04-11T02:02:57.010Z,2.16
2019-04-11T02:03:57.322Z,2.17
2019-04-11T02:04:56.544Z,2.23
2019-04-11T02:05:57.099Z,2.20
2019-04-11T02:06:56.481Z,2.23
2019-04-11T02:07:56.478Z,2.16
2019-04-11T02:08:57.673Z,2.26
2019-04-11T02:09:56.745Z,2.20
2019-04-11T02:10:57.070Z,2.22
2019-04-11T02:11:56.434Z,2.20
2019-04-11T02:12:56.427Z,2.23
2019-04-11T02:14:09.821Z,2.22
2019-04-11T02:14:57.710Z,2.06
2019-04-11T02:15:58.083Z,2.08
2019-04-11T02:16:57.096Z,2.10
2019-04-11T02:17:57.253Z,2.08
2019-04-11T02:18:56.356Z,2.22
2019-04-11T02:19:56.573Z,2.06
2019-04-11T02:20:57.548Z,2.17
2019-04-11T02:21:56.323Z,2.04
2019-04-11T02:22:56.930Z,2.22
2019-04-11T02:23:56.349Z,2.15
2019-04-11T02:24:57.501Z,2.09
2019-04-11T02:25:56.606Z,2.08
2019-04-11T02:26:56.649Z,2.16
2019-04-11T02:27:56.272Z,2.10
2019-04-11T02:28:57.187Z,2.06
2019-04-11T02:29:56.240Z,2.08
2019-04-11T02:30:56.708Z,2.09
2019-04-11T02:31:57.392Z,2.13
2019-04-11T02:32:56.240Z,2.06
2019-04-11T02:33:57.276Z,2.08
2019-04-11T02:34:59.190Z,2.12
2019-04-11T02:35:57.301Z,2.08
2019-04-11T02:36:58.027Z,2.08
2019-04-11T02:37:57.078Z,2.04
2019-04-11T02:38:59.386Z,2.04
2019-04-11T02:39:58.046Z,2.09
2019-04-11T02:40:57.784Z,2.06
2019-04-11T02:41:56.893Z,2.02
2019-04-11T02:42:57.275Z,1.87
2019-04-11T02:43:57.614Z,1.93
2019-04-11T02:45:15.475Z,1.87
2019-04-11T02:46:09.815Z,1.87
2019-04-11T02:47:05.188Z,1.87
2019-04-11T02:47:57.182Z,1.75
2019-04-11T02:48:56.787Z,1.76
2019-04-11T02:49:57.282Z,1.72
2019-04-11T02:50:56.634Z,1.71
2019-04-11T02:51:56.173Z,1.62
2019-04-11T02:52:56.667Z,1.51
2019-04-11T02:53:57.301Z,1.55
2019-04-11T02:54:56.839Z,1.54
2019-04-11T02:55:56.612Z,1.61
2019-04-11T02:56:57.725Z,1.62
2019-04-11T02:57:57.001Z,1.58
2019-04-11T02:58:56.474Z,1.54
2019-04-11T02:59:56.464Z,1.50
2019-04-11T03:00:58.942Z,1.46
2019-04-11T03:01:55.965Z,1.44
2019-04-11T03:02:56.936Z,1.47
2019-04-11T03:03:57.056Z,1.50
2019-04-11T03:04:56.562Z,1.51
2019-04-11T03:05:57.614Z,1.46
2019-04-11T03:06:57.298Z,1.51
2019-04-11T03:07:56.461Z,1.42
2019-04-11T03:08:57.595Z,1.43
2019-04-11T03:09:56.436Z,1.43
2019-04-11T03:10:57.487Z,1.39
2019-04-11T03:11:56.805Z,1.39
2019-04-11T03:12:56.797Z,1.26
2019-04-11T03:13:55.799Z,1.26
2019-04-11T03:15:10.425Z,1.19
2019-04-11T03:16:11.399Z,1.19
2019-04-11T03:17:06.213Z,1.16
2019-04-11T03:18:01.797Z,1.16
2019-04-11T03:19:14.401Z,1.22
2019-04-11T03:20:09.332Z,1.26
2019-04-11T03:21:02.842Z,1.25
2019-04-11T03:21:58.803Z,1.29
2019-04-11T03:23:00.095Z,1.24
2019-04-11T03:23:58.608Z,1.19
2019-04-11T03:24:58.390Z,1.19
2019-04-11T03:25:56.634Z,1.16
2019-04-11T03:26:58.095Z,1.25
2019-04-11T03:27:57.015Z,1.14
2019-04-11T03:28:57.469Z,1.14
2019-04-11T03:29:56.511Z,1.04
2019-04-11T03:31:26.634Z,1.14
2019-04-11T03:32:37.059Z,1.10
2019-04-11T03:35:51.998Z,1.25
2019-04-11T03:36:50.610Z,1.16
2019-04-11T03:38:19.516Z,1.24
2019-04-11T03:39:15.145Z,1.18
2019-04-11T03:40:18.722Z,1.32
2019-04-11T03:41:18.904Z,1.15
2019-04-11T03:42:15.829Z,1.28
2019-04-11T03:43:09.257Z,1.24
2019-04-11T03:44:04.308Z,1.28
2019-04-11T03:45:15.091Z,1.21
2019-04-11T03:46:16.252Z,1.21
2019-04-11T03:47:14.720Z,1.18
2019-04-11T03:48:10.175Z,1.06
2019-04-11T03:49:06.171Z,1.10
2019-04-11T03:50:03.863Z,1.06
2019-04-11T03:50:57.342Z,0.94
2019-04-11T03:51:55.763Z,0.92
2019-04-11T03:52:56.292Z,0.82
2019-04-11T03:53:56.758Z,0.86
2019-04-11T03:54:56.226Z,0.88
2019-04-11T03:55:56.130Z,0.94
2019-04-11T03:56:55.324Z,0.96
2019-04-11T03:57:56.712Z,0.98
2019-04-11T03:58:55.520Z,0.97
2019-04-11T03:59:56.542Z,0.98
2019-04-11T04:00:59.278Z,0.97
2019-04-11T04:01:57.531Z,0.96
2019-04-11T04:02:57.169Z,1.01
2019-04-11T04:03:55.679Z,0.88
2019-04-11T04:04:55.249Z,0.90
2019-04-11T04:05:57.221Z,0.97
2019-04-11T04:06:55.882Z,0.97
2019-04-11T04:07:57.214Z,0.94
2019-04-11T04:08:55.683Z,0.97
2019-04-11T04:09:55.199Z,0.82
2019-04-11T04:10:56.341Z,0.79
2019-04-11T04:11:56.929Z,0.71
2019-04-11T04:12:55.926Z,0.75
2019-04-11T04:13:56.214Z,0.72
2019-04-11T04:14:55.137Z,0.68
2019-04-11T04:16:05.166Z,0.76
2019-04-11T04:16:59.324Z,0.68
2019-04-11T04:17:57.343Z,0.64
2019-04-11T04:18:56.514Z,0.72
2019-04-11T04:19:56.599Z,0.68
2019-04-11T04:20:55.079Z,0.70
2019-04-11T04:21:55.472Z,0.76
2019-04-11T04:22:56.504Z,0.72
2019-04-11T04:23:57.879Z,0.83
2019-04-11T04:24:55.848Z,0.72
2019-04-11T04:25:55.303Z,0.79
2019-04-11T04:26:56.769Z,0.85
2019-04-11T04:27:56.741Z,0.79
2019-04-11T04:28:55.526Z,0.79
2019-04-11T04:29:57.630Z,0.86
2019-04-11T04:30:54.976Z,0.82
2019-04-11T04:31:55.136Z,0.80
2019-04-11T04:32:56.609Z,0.88
2019-04-11T04:33:55.561Z,0.89
2019-04-11T04:34:56.303Z,0.89
2019-04-11T04:35:56.021Z,0.90
2019-04-11T04:36:55.679Z,0.92
2019-04-11T04:37:56.766Z,0.90
2019-04-11T04:38:54.883Z,0.89
2019-04-11T04:40:13.582Z,0.92
2019-04-11T04:41:12.792Z,0.94
2019-04-11T04:42:03.909Z,0.88
2019-04-11T04:42:58.219Z,0.88
2019-04-11T04:43:56.936Z,0.90
2019-04-11T04:44:55.984Z,0.96
2019-04-11T04:46:11.521Z,0.92
2019-04-11T04:47:12.298Z,0.90
2019-04-11T04:48:02.645Z,0.94
2019-04-11T04:48:56.128Z,1.00
2019-04-11T04:49:54.768Z,0.97
2019-04-11T04:50:57.063Z,0.98
2019-04-11T04:51:55.735Z,0.94
2019-04-11T04:52:55.885Z,1.00
2019-04-11T04:53:55.634Z,0.98
2019-04-11T04:54:56.757Z,0.97
2019-04-11T04:55:54.714Z,1.03
2019-04-11T04:56:55.178Z,0.96
2019-04-11T04:57:55.416Z,0.94
2019-04-11T04:58:55.959Z,0.96
2019-04-11T04:59:55.500Z,0.96
2019-04-11T05:00:56.684Z,1.18
2019-04-11T05:01:55.429Z,1.94
2019-04-11T05:02:55.022Z,2.74
2019-04-11T05:03:56.240Z,3.20
2019-04-11T05:04:56.465Z,3.62
2019-04-11T05:05:55.256Z,3.97
2019-04-11T05:06:55.211Z,4.01
2019-04-11T05:07:56.142Z,3.67
2019-04-11T05:08:56.032Z,3.44
2019-04-11T05:09:54.708Z,2.97
2019-04-11T05:10:55.820Z,2.88
2019-04-11T05:11:55.190Z,2.97
2019-04-11T05:12:54.921Z,2.67
2019-04-11T05:13:54.656Z,2.31
2019-04-11T05:14:55.952Z,2.26
2019-04-11T05:16:07.241Z,2.10
2019-04-11T05:16:55.487Z,2.09
2019-04-11T05:17:54.469Z,1.75
2019-04-11T05:18:54.754Z,1.62
2019-04-11T05:19:54.480Z,1.47
2019-04-11T05:20:54.762Z,1.54
2019-04-11T05:21:54.434Z,1.26
2019-04-11T05:22:54.415Z,1.22
2019-04-11T05:23:55.506Z,1.24
2019-04-11T05:24:55.882Z,1.26
2019-04-11T05:25:55.014Z,1.44
2019-04-11T05:26:55.543Z,1.43
2019-04-11T05:27:54.366Z,1.44
2019-04-11T05:28:55.176Z,1.50
2019-04-11T05:29:54.340Z,1.39
2019-04-11T05:30:55.316Z,1.44
2019-04-11T05:31:54.704Z,1.46
2019-04-11T05:32:55.609Z,1.44
2019-04-11T05:33:54.300Z,1.50
2019-04-11T05:34:54.288Z,1.46
2019-04-11T05:35:54.290Z,1.47
2019-04-11T05:36:55.215Z,1.37
2019-04-11T05:37:54.259Z,1.37
2019-04-11T05:38:54.733Z,1.50
2019-04-11T05:39:54.233Z,1.47
2019-04-11T05:40:54.587Z,1.52
2019-04-11T05:41:54.516Z,1.44
2019-04-11T05:42:54.660Z,1.42
2019-04-11T05:43:54.195Z,1.54
2019-04-11T05:44:54.776Z,1.55
2019-04-11T05:45:55.233Z,1.57
2019-04-11T05:46:57.614Z,1.44
2019-04-11T05:47:56.671Z,1.60
2019-04-11T05:48:57.839Z,1.69
2019-04-11T05:49:55.131Z,1.98
2019-04-11T05:50:54.149Z,2.33
2019-04-11T05:51:57.975Z,2.77
2019-04-11T05:52:54.621Z,3.34
2019-04-11T05:53:55.709Z,3.79
2019-04-11T05:54:54.348Z,4.06
2019-04-11T05:55:55.205Z,4.21
2019-04-11T05:56:56.498Z,4.59
2019-04-11T05:57:54.422Z,4.72
2019-04-11T05:58:54.033Z,4.44
2019-04-11T05:59:55.113Z,4.42
2019-04-11T06:00:55.657Z,4.84
2019-04-11T06:01:54.960Z,5.23
2019-04-11T06:02:54.112Z,5.88
2019-04-11T06:03:53.980Z,6.36
2019-04-11T06:04:56.079Z,7.20
2019-04-11T06:05:56.478Z,8.14
2019-04-11T06:06:56.882Z,8.58
2019-04-11T06:07:57.284Z,8.55
2019-04-11T06:08:58.573Z,9.27
2019-04-11T06:09:54.917Z,9.57
2019-04-11T06:10:54.706Z,9.05
2019-04-11T06:11:55.846Z,9.31
2019-04-11T06:12:54.707Z,9.38
2019-04-11T06:13:53.873Z,9.43
2019-04-11T06:14:53.863Z,9.42
2019-04-11T06:15:53.854Z,9.67
2019-04-11T06:16:55.763Z,10.06
2019-04-11T06:17:54.553Z,10.39
2019-04-11T06:18:54.313Z,10.51
2019-04-11T06:19:53.809Z,10.91
2019-04-11T06:20:53.798Z,11.24
2019-04-11T06:21:53.787Z,10.99
2019-04-11T06:22:54.094Z,10.17
2019-04-11T06:23:53.895Z,9.83
2019-04-11T06:24:53.760Z,10.07
2019-04-11T06:25:53.744Z,10.80
2019-04-11T06:26:54.746Z,11.70
2019-04-11T06:27:53.776Z,12.37
2019-04-11T06:28:55.488Z,12.87
2019-04-11T06:29:54.841Z,12.69
2019-04-11T06:30:54.712Z,11.96
2019-04-11T06:31:53.682Z,11.19
2019-04-11T06:32:54.369Z,11.46
2019-04-11T06:33:53.674Z,11.17
2019-04-11T06:34:53.661Z,11.02
2019-04-11T06:35:54.550Z,11.39
2019-04-11T06:36:53.639Z,10.96
2019-04-11T06:37:54.229Z,11.27
2019-04-11T06:38:54.687Z,11.38
2019-04-11T06:39:54.490Z,11.02
2019-04-11T06:40:54.509Z,11.27
2019-04-11T06:41:54.820Z,11.77
2019-04-11T06:42:53.864Z,11.75
2019-04-11T06:43:53.567Z,11.94
2019-04-11T06:44:54.332Z,11.56
2019-04-11T06:45:54.407Z,10.88
2019-04-11T06:46:56.365Z,10.91
2019-04-11T06:47:53.600Z,11.25
2019-04-11T06:48:53.925Z,11.62
2019-04-11T06:49:53.496Z,12.15
2019-04-11T06:50:53.487Z,12.38
2019-04-11T06:51:54.827Z,12.84
2019-04-11T06:52:53.471Z,12.70
2019-04-11T06:53:54.474Z,12.20
2019-04-11T06:54:53.944Z,12.57
2019-04-11T06:55:53.436Z,13.29
2019-04-11T06:56:53.814Z,13.79
2019-04-11T06:57:54.232Z,13.61
2019-04-11T06:58:54.182Z,13.80
2019-04-11T06:59:53.439Z,14.06
2019-04-11T07:00:53.594Z,13.99
2019-04-11T07:01:53.375Z,13.55
2019-04-11T07:02:53.364Z,12.44
2019-04-11T07:03:53.403Z,11.99
2019-04-11T07:04:53.894Z,12.19
2019-04-11T07:05:53.334Z,12.31
2019-04-11T07:06:53.735Z,12.44
2019-04-11T07:07:53.701Z,12.63
2019-04-11T07:08:53.321Z,12.56
2019-04-11T07:09:53.525Z,11.83
2019-04-11T07:10:53.286Z,11.85
2019-04-11T07:11:53.277Z,12.38
2019-04-11T07:12:55.608Z,12.16
2019-04-11T07:13:53.339Z,12.09
2019-04-11T07:14:53.253Z,11.62
2019-04-11T07:15:53.234Z,11.31
2019-04-11T07:17:01.410Z,11.32
2019-04-11T07:17:54.674Z,11.44
2019-04-11T07:18:53.212Z,10.88
2019-04-11T07:19:53.680Z,9.97
2019-04-11T07:20:54.232Z,10.15
2019-04-11T07:21:53.170Z,10.58
2019-04-11T07:22:53.165Z,10.32
2019-04-11T07:23:53.460Z,9.96
2019-04-11T07:24:53.138Z,9.61
2019-04-11T07:25:53.896Z,9.83
2019-04-11T07:26:54.266Z,9.97
2019-04-11T07:27:53.108Z,9.78
2019-04-11T07:28:54.253Z,9.56
2019-04-11T07:29:54.247Z,9.73
2019-04-11T07:30:53.869Z,9.71
2019-04-11T07:31:53.169Z,9.30
2019-04-11T07:32:53.299Z,8.90
2019-04-11T07:33:53.984Z,8.47
2019-04-11T07:34:54.309Z,8.15
2019-04-11T07:35:53.042Z,7.90
2019-04-11T07:36:53.595Z,7.63
2019-04-11T07:37:53.383Z,7.69
2019-04-11T07:38:54.362Z,7.81
2019-04-11T07:39:52.981Z,7.58
2019-04-11T07:40:54.611Z,7.38
2019-04-11T07:41:52.963Z,7.34
2019-04-11T07:42:53.287Z,7.41
2019-04-11T07:43:52.938Z,7.67
2019-04-11T07:44:52.926Z,7.96
2019-04-11T07:45:52.927Z,7.89
2019-04-11T07:46:53.686Z,8.03
2019-04-11T07:47:52.898Z,7.78
2019-04-11T07:48:52.887Z,7.50
2019-04-11T07:49:55.194Z,7.32
2019-04-11T07:50:55.034Z,7.13
2019-04-11T07:51:52.878Z,6.99
2019-04-11T07:52:53.748Z,6.81
2019-04-11T07:53:52.827Z,6.81
2019-04-11T07:54:53.695Z,7.12
2019-04-11T07:55:53.134Z,6.99
2019-04-11T07:56:52.863Z,6.66
2019-04-11T07:57:52.789Z,6.59
2019-04-11T07:58:52.781Z,6.68
2019-04-11T07:59:53.346Z,6.77
2019-04-11T08:00:54.347Z,6.68
2019-04-11T08:01:52.964Z,6.79
2019-04-11T08:02:53.238Z,6.91
2019-04-11T08:03:53.616Z,6.47
2019-04-11T08:04:53.301Z,6.48
2019-04-11T08:05:52.714Z,6.47
2019-04-11T08:06:52.693Z,6.59
2019-04-11T08:07:52.680Z,6.62
2019-04-11T08:08:52.667Z,6.62
2019-04-11T08:09:52.822Z,6.86
2019-04-11T08:10:52.675Z,6.90
2019-04-11T08:11:52.635Z,7.04
2019-04-11T08:12:52.625Z,7.17
2019-04-11T08:13:54.732Z,7.17
2019-04-11T08:14:53.041Z,7.40
2019-04-11T08:15:53.658Z,7.45
2019-04-11T08:16:53.243Z,7.58
2019-04-11T08:17:52.590Z,7.81
2019-04-11T08:18:52.920Z,7.84
2019-04-11T08:19:53.228Z,7.92
2019-04-11T08:20:53.303Z,7.97
2019-04-11T08:21:52.613Z,7.72
2019-04-11T08:22:52.532Z,7.72
2019-04-11T08:23:52.527Z,7.77
2019-04-11T08:24:53.202Z,7.69
2019-04-11T08:25:53.581Z,7.62
2019-04-11T08:26:52.624Z,7.40
2019-04-11T08:27:59.996Z,7.01
2019-04-11T08:29:05.249Z,6.98
2019-04-11T08:29:54.549Z,7.01
2019-04-11T08:30:52.466Z,7.02
2019-04-11T08:31:54.853Z,7.07
2019-04-11T08:32:52.446Z,6.98
2019-04-11T08:33:53.099Z,7.13
2019-04-11T08:34:53.427Z,7.23
2019-04-11T08:35:53.994Z,7.23
2019-04-11T08:36:52.401Z,7.35
2019-04-11T08:37:52.380Z,7.47
2019-04-11T08:38:53.024Z,7.40
2019-04-11T08:39:53.373Z,7.47
2019-04-11T08:40:53.341Z,7.66
2019-04-11T08:41:52.352Z,7.72
2019-04-11T08:42:52.817Z,7.66
2019-04-11T08:43:53.199Z,7.60
2019-04-11T08:44:52.298Z,7.72
2019-04-11T08:45:52.293Z,7.40
2019-04-11T08:46:52.280Z,7.35
2019-04-11T08:47:56.918Z,7.45
2019-04-11T08:48:53.243Z,7.58
2019-04-11T08:49:52.324Z,7.69
2019-04-11T08:50:52.528Z,7.71
2019-04-11T08:51:52.242Z,7.75
2019-04-11T08:52:52.207Z,7.84
2019-04-11T08:53:53.142Z,7.79
2019-04-11T08:54:52.182Z,7.89
2019-04-11T08:55:56.223Z,7.93
2019-04-11T08:56:53.595Z,7.94
2019-04-11T08:57:52.150Z,7.78
2019-04-11T08:58:53.084Z,7.59
2019-04-11T08:59:52.123Z,7.41
2019-04-11T09:00:52.794Z,7.35
2019-04-11T09:01:52.103Z,7.24
2019-04-11T09:02:53.347Z,7.19
2019-04-11T09:04:04.111Z,6.91
2019-04-11T09:05:03.176Z,6.73
2019-04-11T09:05:53.347Z,6.69
2019-04-11T09:06:52.597Z,6.79
2019-04-11T09:07:52.125Z,6.69
2019-04-11T09:08:52.026Z,6.76
2019-04-11T09:09:52.025Z,6.65
2019-04-11T09:10:52.591Z,6.62
2019-04-11T09:11:52.003Z,6.69
2019-04-11T09:12:53.059Z,6.72
2019-04-11T09:13:51.972Z,6.62
2019-04-11T09:14:52.689Z,6.58
2019-04-11T09:15:52.925Z,6.35
2019-04-11T09:16:52.131Z,6.28
2019-04-11T09:17:58.847Z,6.35
2019-04-11T09:18:52.923Z,6.46
2019-04-11T09:19:51.911Z,6.50
2019-04-11T09:20:51.907Z,6.59
2019-04-11T09:21:52.786Z,6.69
2019-04-11T09:22:51.924Z,6.89
2019-04-11T09:23:52.228Z,6.77
2019-04-11T09:24:51.854Z,6.80
2019-04-11T09:25:53.411Z,6.79
2019-04-11T09:26:52.020Z,6.98
2019-04-11T09:27:53.967Z,6.99
2019-04-11T09:28:51.822Z,7.07
2019-04-11T09:29:52.492Z,7.01
2019-04-11T09:30:52.793Z,7.01
2019-04-11T09:31:51.783Z,7.09
2019-04-11T09:32:52.842Z,7.01
2019-04-11T09:33:51.767Z,7.02
2019-04-11T09:34:52.215Z,6.97
2019-04-11T09:35:51.737Z,6.90
2019-04-11T09:36:51.726Z,6.89
2019-04-11T09:37:51.850Z,6.77
2019-04-11T09:38:52.771Z,6.90
2019-04-11T09:39:51.695Z,6.87
2019-04-11T09:40:52.119Z,6.77
2019-04-11T09:41:52.425Z,6.80
2019-04-11T09:42:51.700Z,6.83
2019-04-11T09:43:52.700Z,6.87
2019-04-11T09:44:51.663Z,6.91
2019-04-11T09:45:52.603Z,6.76
2019-04-11T09:46:51.625Z,6.76
2019-04-11T09:47:51.970Z,6.63
2019-04-11T09:48:51.615Z,6.79
2019-04-11T09:49:51.668Z,6.77
2019-04-11T09:50:51.581Z,6.65
2019-04-11T09:51:52.001Z,6.68
2019-04-11T09:52:51.682Z,6.79
2019-04-11T09:53:52.809Z,6.59
2019-04-11T09:54:52.627Z,6.51
2019-04-11T09:55:51.534Z,6.40
2019-04-11T09:56:51.805Z,6.33
2019-04-11T09:57:52.490Z,6.30
2019-04-11T09:58:51.875Z,6.32
2019-04-11T09:59:51.844Z,6.48
2019-04-11T10:00:51.475Z,6.50
2019-04-11T10:01:51.747Z,6.68
2019-04-11T10:02:52.606Z,6.68
2019-04-11T10:03:51.441Z,6.73
2019-04-11T10:04:52.239Z,6.69
2019-04-11T10:05:51.714Z,6.66
2019-04-11T10:06:51.409Z,6.66
2019-04-11T10:07:52.317Z,6.65
2019-04-11T10:08:51.395Z,6.56
2019-04-11T10:09:52.445Z,6.51
2019-04-11T10:10:51.375Z,6.47
2019-04-11T10:11:52.523Z,6.47
2019-04-11T10:12:52.066Z,6.41
2019-04-11T10:13:51.380Z,6.36
2019-04-11T10:14:51.393Z,6.13
2019-04-11T10:15:51.545Z,6.22
2019-04-11T10:16:52.516Z,6.22
2019-04-11T10:17:51.456Z,6.11
2019-04-11T10:18:51.545Z,6.16
2019-04-11T10:19:51.953Z,6.22
2019-04-11T10:20:51.271Z,6.11
2019-04-11T10:21:51.259Z,6.07
2019-04-11T10:22:52.251Z,6.19
2019-04-11T10:23:51.392Z,6.32
2019-04-11T10:24:51.449Z,6.26
2019-04-11T10:25:51.752Z,6.16
2019-04-11T10:26:52.128Z,6.22
2019-04-11T10:27:51.185Z,6.21
2019-04-11T10:28:51.693Z,6.29
2019-04-11T10:29:51.182Z,6.29
2019-04-11T10:30:51.165Z,6.47
2019-04-11T10:31:51.192Z,6.56
2019-04-11T10:32:51.813Z,6.59
2019-04-11T10:33:51.153Z,6.58
2019-04-11T10:34:52.204Z,6.56
2019-04-11T10:35:51.145Z,6.61
2019-04-11T10:36:51.592Z,6.61
2019-04-11T10:37:51.914Z,6.61
2019-04-11T10:38:51.065Z,6.68
2019-04-11T10:39:51.320Z,6.69
2019-04-11T10:40:51.045Z,6.73
2019-04-11T10:41:51.032Z,6.83
2019-04-11T10:42:51.866Z,6.76
2019-04-11T10:43:51.659Z,6.94
2019-04-11T10:44:51.050Z,6.98
2019-04-11T10:45:51.107Z,7.17
2019-04-11T10:46:51.462Z,7.13
2019-04-11T10:47:51.276Z,7.04
2019-04-11T10:48:50.980Z,7.16
2019-04-11T10:49:50.948Z,7.35
2019-04-11T10:50:50.952Z,7.34
2019-04-11T10:51:50.921Z,7.29
2019-04-11T10:52:50.964Z,7.20
2019-04-11T10:53:51.206Z,7.17
2019-04-11T10:54:51.165Z,6.97
2019-04-11T10:55:51.758Z,6.95
2019-04-11T10:56:51.605Z,6.91
2019-04-11T10:57:52.038Z,6.76
2019-04-11T10:58:51.231Z,6.76
2019-04-11T10:59:51.186Z,6.80
2019-04-11T11:00:51.487Z,6.83
2019-04-11T11:01:50.901Z,6.76
2019-04-11T11:02:50.813Z,6.77
2019-04-11T11:03:51.469Z,6.80
2019-04-11T11:04:50.784Z,6.79
2019-04-11T11:05:51.394Z,6.90
2019-04-11T11:06:51.760Z,6.86
2019-04-11T11:07:51.034Z,6.80
2019-04-11T11:08:50.759Z,6.80
2019-04-11T11:09:50.770Z,6.58
2019-04-11T11:10:52.078Z,6.40
2019-04-11T11:11:50.733Z,6.35
2019-04-11T11:12:51.727Z,6.44
2019-04-11T11:13:50.971Z,6.33
2019-04-11T11:14:51.935Z,6.29
2019-04-11T11:15:51.687Z,6.13
2019-04-11T11:16:50.837Z,6.13
2019-04-11T11:18:20.274Z,5.95
2019-04-11T11:19:21.153Z,5.81
2019-04-11T11:20:05.342Z,5.75
2019-04-11T11:20:55.661Z,5.89
2019-04-11T11:21:51.612Z,6.00
2019-04-11T11:22:51.702Z,6.11
2019-04-11T11:23:50.820Z,6.33
2019-04-11T11:24:50.565Z,6.40
2019-04-11T11:25:51.991Z,6.46
2019-04-11T11:26:53.561Z,6.59
2019-04-11T11:27:52.362Z,6.54
2019-04-11T11:28:50.930Z,6.44
2019-04-11T11:29:51.559Z,6.13
2019-04-11T11:30:51.875Z,5.98
2019-04-11T11:31:50.489Z,5.92
2019-04-11T11:32:51.691Z,5.74
2019-04-11T11:33:50.956Z,5.70
2019-04-11T11:34:53.037Z,5.63
2019-04-11T11:35:50.444Z,5.66
2019-04-11T11:36:53.072Z,5.66
2019-04-11T11:37:50.457Z,5.60
2019-04-11T11:38:50.417Z,5.66
2019-04-11T11:39:51.121Z,5.81
2019-04-11T11:40:50.403Z,5.71
2019-04-11T11:41:50.388Z,5.88
2019-04-11T11:42:50.631Z,5.67
2019-04-11T11:43:51.577Z,5.67
2019-04-11T11:44:50.356Z,5.63
2019-04-11T11:45:53.669Z,5.55
2019-04-11T11:46:52.172Z,5.56
2019-04-11T11:47:51.142Z,5.60
2019-04-11T11:48:52.978Z,5.74
2019-04-11T11:49:57.067Z,5.78
2019-04-11T11:50:51.490Z,5.68
2019-04-11T11:51:50.298Z,5.56
2019-04-11T11:52:51.110Z,5.67
2019-04-11T11:53:51.085Z,5.77
2019-04-11T11:54:51.460Z,5.89
2019-04-11T11:55:50.233Z,5.88
2019-04-11T11:56:50.723Z,5.75
2019-04-11T11:57:51.031Z,5.77
2019-04-11T11:58:55.345Z,5.89
2019-04-11T11:59:52.060Z,5.81
2019-04-11T12:00:53.514Z,5.93
2019-04-11T12:01:52.331Z,6.09
2019-04-11T12:02:51.974Z,6.28
2019-04-11T12:03:50.746Z,6.38
2019-04-11T12:04:50.141Z,6.35
2019-04-11T12:05:51.988Z,6.13
2019-04-11T12:06:53.193Z,6.26
2019-04-11T12:07:51.457Z,6.30
2019-04-11T12:08:51.318Z,6.36
2019-04-11T12:09:50.941Z,6.30
2019-04-11T12:10:51.318Z,6.29
2019-04-11T12:11:52.466Z,6.25
2019-04-11T12:12:50.047Z,6.26
2019-04-11T12:13:50.039Z,6.35
2019-04-11T12:14:50.048Z,6.07
2019-04-11T12:15:51.031Z,6.03
2019-04-11T12:16:54.985Z,6.07
2019-04-11T12:17:51.934Z,6.29
2019-04-11T12:18:53.114Z,6.32
2019-04-11T12:19:53.896Z,6.36
2019-04-11T12:20:51.393Z,6.53
2019-04-11T12:21:49.953Z,6.61
2019-04-11T12:22:52.073Z,6.61
2019-04-11T12:23:59.241Z,6.59
2019-04-11T12:24:50.922Z,6.83
2019-04-11T12:25:49.906Z,6.91
2019-04-11T12:26:49.902Z,6.63
2019-04-11T12:27:50.131Z,6.66
2019-04-11T12:28:50.016Z,6.62
2019-04-11T12:29:50.845Z,6.50
2019-04-11T12:30:50.395Z,6.43
2019-04-11T12:31:50.255Z,6.48
2019-04-11T12:32:49.844Z,6.58
2019-04-11T12:33:50.030Z,6.71
2019-04-11T12:34:49.810Z,6.77
2019-04-11T12:35:50.792Z,6.90
2019-04-11T12:36:50.888Z,6.91
2019-04-11T12:37:51.837Z,6.83
2019-04-11T12:38:49.775Z,6.91
2019-04-11T12:39:49.764Z,7.05
2019-04-11T12:40:49.749Z,7.07
2019-04-11T12:41:49.737Z,7.01
2019-04-11T12:42:49.735Z,6.94
2019-04-11T12:43:49.716Z,6.90
2019-04-11T12:44:49.726Z,6.84
2019-04-11T12:45:49.764Z,6.87
2019-04-11T12:46:49.684Z,6.90
2019-04-11T12:47:49.684Z,6.83
2019-04-11T12:48:49.665Z,6.66
2019-04-11T12:49:53.242Z,6.41
2019-04-11T12:50:49.639Z,6.32
2019-04-11T12:51:49.658Z,6.30
2019-04-11T12:52:49.632Z,6.33
2019-04-11T12:53:49.607Z,6.38
2019-04-11T12:54:49.596Z,6.46
2019-04-11T12:55:49.586Z,6.46
2019-04-11T12:56:49.575Z,6.47
2019-04-11T12:57:49.594Z,6.47
2019-04-11T12:58:49.553Z,6.58
2019-04-11T12:59:49.543Z,6.62
2019-04-11T13:00:49.539Z,6.56
2019-04-11T13:01:49.526Z,6.68
2019-04-11T13:02:49.509Z,6.76
2019-04-11T13:03:49.512Z,6.98
2019-04-11T13:04:49.489Z,6.80
2019-04-11T13:05:49.488Z,6.79
2019-04-11T13:06:49.473Z,6.73
2019-04-11T13:07:49.462Z,6.77
2019-04-11T13:08:49.454Z,6.80
2019-04-11T13:09:49.436Z,6.84
2019-04-11T13:10:49.425Z,6.99
2019-04-11T13:11:49.414Z,7.15
2019-04-11T13:12:49.448Z,6.87
2019-04-11T13:13:49.400Z,6.59
2019-04-11T13:14:49.380Z,6.66
2019-04-11T13:15:49.372Z,6.56
2019-04-11T13:16:49.358Z,6.62
2019-04-11T13:17:49.352Z,6.71
2019-04-11T13:18:49.350Z,6.76
2019-04-11T13:19:49.328Z,6.62